Time;durP1;ratioP1;P1;durP2;ratioP2;P2;SDS_P1;SDS_P2;PMS_P1;PMS_P2;Temp;Humidity;BMP_temperature;BMP_pressure;BME280_temperature;BME280_humidity;BME280_pressure;Samples;Min_cycle;Max_cycle;Signal;HPM_P1;HPM_P2
2024/02/27 00:01:59;;;;;;;5.03;2.40;;;;;;;4.58;70.38;91673.50;2065304;69;20157;-76
2024/02/27 00:04:25;;;;;;;5.30;3.30;;;;;;;4.32;72.14;91666.91;2065237;69;20615;-75
2024/02/27 00:06:51;;;;;;;7.70;3.90;;;;;;;4.55;71.17;91665.59;2065368;69;20251;-76
2024/02/27 00:09:18;;;;;;;8.57;4.28;;;;;;;4.52;71.27;91687.03;2065323;69;20160;-77
2024/02/27 00:11:47;;;;;;;11.02;6.30;;;;;;;4.36;72.05;91691.53;2065266;69;20148;-77
2024/02/27 00:14:13;;;;;;;11.65;6.28;;;;;;;4.55;71.09;91682.31;2065326;69;20156;-76
2024/02/27 00:16:39;;;;;;;10.93;6.05;;;;;;;4.59;70.93;91674.97;2064645;69;20137;-76
2024/02/27 00:19:05;;;;;;;14.23;6.72;;;;;;;4.62;70.96;91681.38;2064969;69;20481;-76
2024/02/27 00:21:31;;;;;;;9.45;5.78;;;;;;;4.59;71.57;91688.91;2064654;69;20501;-76
2024/02/27 00:23:56;;;;;;;10.48;5.70;;;;;;;4.68;70.91;91689.44;2065207;69;20148;-76
2024/02/27 00:26:22;;;;;;;9.77;5.40;;;;;;;4.69;70.89;91668.59;2064744;69;20145;-76
2024/02/27 00:28:48;;;;;;;6.13;3.70;;;;;;;4.71;71.33;91674.28;2065099;69;20519;-76
2024/02/27 00:31:16;;;;;;;5.15;1.75;;;;;;;4.76;70.10;91676.00;2064894;69;20156;-76
2024/02/27 00:33:42;;;;;;;6.70;3.50;;;;;;;4.50;71.97;91672.25;2064493;69;20181;-76
2024/02/27 00:36:08;;;;;;;6.13;3.38;;;;;;;4.68;71.71;91670.66;2065278;69;20160;-76
2024/02/27 00:38:34;;;;;;;6.15;3.53;;;;;;;4.71;70.84;91675.00;2065326;69;20214;-76
2024/02/27 00:41:02;;;;;;;5.30;3.28;;;;;;;4.72;70.97;91682.06;2065316;69;20152;-76
2024/02/27 00:43:29;;;;;;;4.75;3.10;;;;;;;4.70;71.21;91678.41;2065152;69;20218;-76
2024/02/27 00:45:54;;;;;;;5.38;3.00;;;;;;;4.47;71.70;91682.50;2065260;69;20164;-76
2024/02/27 00:48:20;;;;;;;5.90;3.45;;;;;;;4.39;72.40;91670.81;2065671;69;20136;-77
2024/02/27 00:50:47;;;;;;;7.75;3.33;;;;;;;4.30;72.78;91675.13;2065602;69;20612;-76
2024/02/27 00:53:13;;;;;;;7.60;3.38;;;;;;;4.47;72.71;91670.63;2064796;69;20595;-75
2024/02/27 00:55:39;;;;;;;4.80;3.10;;;;;;;4.69;71.88;91665.81;2065647;69;20167;-76
2024/02/27 00:58:05;;;;;;;8.13;3.20;;;;;;;4.67;71.66;91665.66;2064831;69;20164;-76
2024/02/27 01:00:31;;;;;;;7.25;3.08;;;;;;;4.75;71.52;91657.81;2065118;69;20177;-77
2024/02/27 01:03:00;;;;;;;5.22;2.38;;;;;;;4.59;72.28;91661.03;2065038;69;20153;-77
2024/02/27 01:05:25;;;;;;;3.72;1.38;;;;;;;4.83;70.40;91663.94;2064812;69;20234;-76
2024/02/27 01:07:51;;;;;;;3.63;1.40;;;;;;;4.92;70.58;91656.81;2065904;69;20607;-76
2024/02/27 01:10:16;;;;;;;2.42;1.65;;;;;;;4.62;70.70;91650.72;2067629;69;20137;-76
2024/02/27 01:16:31;;;;;;;2.75;1.40;;;;;;;4.63;69.96;91652.22;2065565;69;20124;-75
2024/02/27 01:22:44;;;;;;;4.78;1.30;;;;;;;4.89;69.34;91647.59;2065636;69;20124;-76
2024/02/27 01:25:12;;;;;;;1.60;1.30;;;;;;;4.96;69.19;91654.28;2065188;69;20161;-76
2024/02/27 01:27:38;;;;;;;1.92;1.40;;;;;;;4.79;69.83;91646.94;2065309;69;20528;-76
2024/02/27 01:30:04;;;;;;;2.22;1.30;;;;;;;4.97;68.86;91647.38;2065577;69;20144;-76
2024/02/27 01:32:30;;;;;;;2.67;1.40;;;;;;;4.81;68.62;91650.59;2065550;69;20141;-76
2024/02/27 01:34:57;;;;;;;3.45;1.45;;;;;;;4.93;68.83;91650.63;2065503;69;20133;-76
2024/02/27 01:37:23;;;;;;;1.65;1.30;;;;;;;5.08;68.29;91649.47;2065604;69;20632;-77
2024/02/27 01:39:49;;;;;;;2.47;1.38;;;;;;;5.19;67.59;91648.06;2065508;69;20152;-77
2024/02/27 01:42:14;;;;;;;1.17;1.00;;;;;;;5.27;68.13;91654.16;2064763;69;20236;-76
2024/02/27 01:44:49;;;;;;;5.32;1.27;;;;;;;5.20;69.02;91650.25;2064635;69;20164;-76
2024/02/27 01:47:14;;;;;;;3.22;1.30;;;;;;;5.15;68.02;91640.16;2065542;69;20694;-76
2024/02/27 01:49:41;;;;;;;1.92;1.30;;;;;;;5.03;67.76;91645.69;2065216;69;20152;-76
2024/02/27 01:52:07;;;;;;;4.38;1.10;;;;;;;5.24;67.92;91649.78;2065309;69;20251;-76
2024/02/27 01:54:35;;;;;;;3.00;1.17;;;;;;;5.33;67.62;91646.91;2064884;69;20223;-76
2024/02/27 01:57:01;;;;;;;2.60;1.20;;;;;;;5.35;67.50;91649.81;2064930;69;20597;-76
2024/02/27 01:59:28;;;;;;;1.40;1.20;;;;;;;5.31;67.99;91643.25;2065418;69;20153;-76
2024/02/27 02:01:54;;;;;;;2.92;1.30;;;;;;;5.41;67.30;91640.38;2065197;69;20129;-76
2024/02/27 02:04:20;;;;;;;1.27;1.17;;;;;;;5.52;67.35;91648.03;2065444;69;20183;-76
2024/02/27 02:06:46;;;;;;;2.53;1.20;;;;;;;5.12;68.55;91649.00;2064973;69;20198;-77
2024/02/27 02:09:12;;;;;;;2.55;1.67;;;;;;;5.34;68.00;91653.94;2065478;69;20173;-76
2024/02/27 02:11:40;;;;;;;2.75;1.48;;;;;;;5.39;67.45;91649.34;2064773;69;20608;-76
2024/02/27 02:14:07;;;;;;;4.68;1.60;;;;;;;5.43;68.16;91660.75;2065386;69;20543;-76
2024/02/27 02:16:33;;;;;;;3.03;1.40;;;;;;;5.06;68.47;91658.44;2064741;69;20616;-76
2024/02/27 02:18:59;;;;;;;2.22;1.48;;;;;;;5.31;68.15;91649.56;2064670;69;20168;-75
2024/02/27 02:21:24;;;;;;;2.33;1.45;;;;;;;5.40;68.03;91642.41;2065403;69;20152;-75
2024/02/27 02:23:50;;;;;;;1.98;1.20;;;;;;;5.48;67.71;91656.16;2062149;69;20572;-75
2024/02/27 02:26:17;;;;;;;2.17;1.30;;;;;;;5.07;69.27;91656.38;2064917;69;20137;-75
2024/02/27 02:28:43;;;;;;;1.45;1.17;;;;;;;5.31;68.88;91652.38;2065430;69;20200;-76
2024/02/27 02:31:09;;;;;;;1.98;1.17;;;;;;;5.47;68.55;91649.13;2065398;69;20388;-76
2024/02/27 02:33:34;;;;;;;1.73;1.40;;;;;;;5.54;67.94;91650.94;2065288;69;20177;-76
2024/02/27 02:36:00;;;;;;;2.88;1.17;;;;;;;5.50;68.56;91648.66;2065118;69;20133;-77
2024/02/27 02:38:25;;;;;;;1.83;1.20;;;;;;;5.56;68.29;91637.13;2065231;69;20667;-77
2024/02/27 02:40:51;;;;;;;2.53;1.00;;;;;;;5.60;68.67;91645.75;2064686;69;20169;-77
2024/02/27 02:43:17;;;;;;;2.25;1.20;;;;;;;5.20;69.70;91633.50;2065436;69;20287;-77
2024/02/27 02:45:42;;;;;;;3.00;1.38;;;;;;;4.92;71.41;91631.72;2064726;69;20136;-77
2024/02/27 02:48:08;;;;;;;1.67;1.20;;;;;;;5.31;69.57;91629.28;2065276;69;20148;-77
2024/02/27 02:50:35;;;;;;;2.13;1.45;;;;;;;5.34;69.84;91616.94;2061860;69;20597;-78
2024/02/27 02:53:00;;;;;;;2.25;1.40;;;;;;;5.26;70.57;91630.38;2065318;69;20205;-77
2024/02/27 02:55:27;;;;;;;2.13;1.20;;;;;;;5.26;70.38;91633.16;2065245;69;20244;-77
2024/02/27 02:57:54;;;;;;;1.45;1.20;;;;;;;5.44;69.21;91637.09;2065282;69;20192;-76
2024/02/27 03:00:20;;;;;;;1.38;0.98;;;;;;;5.54;68.17;91629.34;2065283;69;20561;-76
2024/02/27 03:02:46;;;;;;;1.85;1.08;;;;;;;5.49;68.43;91624.84;2065069;69;20465;-76
2024/02/27 03:05:12;;;;;;;1.38;1.00;;;;;;;5.60;68.66;91621.34;2064977;69;20234;-77
2024/02/27 03:07:39;;;;;;;0.88;0.80;;;;;;;5.56;68.50;91625.97;2065315;69;20236;-77
2024/02/27 03:10:08;;;;;;;1.40;1.20;;;;;;;5.51;69.71;91624.97;2065140;69;20156;-77
2024/02/27 03:12:37;;;;;;;1.58;0.90;;;;;;;5.66;69.00;91631.44;2065282;69;20242;-76
2024/02/27 03:15:07;;;;;;;1.10;1.00;;;;;;;5.61;69.37;91622.81;2065363;69;20129;-76
2024/02/27 03:17:33;;;;;;;1.25;1.10;;;;;;;5.70;69.42;91643.56;2065125;69;20161;-77
2024/02/27 03:19:58;;;;;;;1.20;1.00;;;;;;;5.42;71.18;91644.63;2064519;69;20148;-77
2024/02/27 03:22:24;;;;;;;1.42;0.93;;;;;;;5.47;71.11;91649.13;2064651;69;20228;-77
2024/02/27 03:24:50;;;;;;;1.15;1.00;;;;;;;5.63;70.51;91649.38;2064558;69;20126;-76
2024/02/27 03:27:16;;;;;;;2.38;1.10;;;;;;;5.55;71.35;91655.22;2064551;69;20171;-77
2024/02/27 03:29:42;;;;;;;1.00;0.82;;;;;;;5.46;71.72;91650.47;2065133;69;20535;-77
2024/02/27 03:32:08;;;;;;;1.25;0.85;;;;;;;5.46;72.07;91653.97;2065034;69;20588;-77
2024/02/27 03:34:34;;;;;;;1.10;1.00;;;;;;;5.64;71.72;91659.97;2064902;69;20153;-75
2024/02/27 03:37:00;;;;;;;1.30;0.95;;;;;;;5.60;71.58;91662.50;2064652;69;20149;-76
2024/02/27 03:39:26;;;;;;;1.73;1.05;;;;;;;5.42;72.20;91648.13;2064692;69;20177;-75
2024/02/27 03:45:39;;;;;;;1.33;0.90;;;;;;;5.49;72.96;91665.97;2065104;69;20203;-76
2024/02/27 03:48:05;;;;;;;1.05;0.90;;;;;;;5.57;72.83;91670.00;2064974;69;20149;-76
2024/02/27 03:50:31;;;;;;;1.38;1.13;;;;;;;5.50;73.27;91668.19;2064945;69;20173;-76
2024/02/27 03:52:57;;;;;;;1.40;1.05;;;;;;;5.45;72.91;91648.97;2064895;69;20136;-76
2024/02/27 03:55:23;;;;;;;2.65;1.08;;;;;;;5.43;74.06;91682.34;2064650;69;20141;-77
2024/02/27 03:57:49;;;;;;;1.80;1.00;;;;;;;5.55;73.65;91680.34;2065001;69;20845;-76
2024/02/27 04:00:16;;;;;;;1.95;1.00;;;;;;;5.55;74.14;91678.28;2065095;69;20157;-77
2024/02/27 04:02:43;;;;;;;1.08;0.95;;;;;;;5.39;74.56;91682.81;2065220;69;20176;-76
2024/02/27 04:05:13;;;;;;;2.58;1.17;;;;;;;5.27;75.39;91684.88;2065181;69;20149;-76
2024/02/27 04:07:43;;;;;;;1.52;1.00;;;;;;;5.46;75.03;91675.56;2065157;69;20169;-76
2024/02/27 04:10:08;;;;;;;1.50;1.10;;;;;;;5.59;75.13;91694.56;2065071;69;20153;-76
2024/02/27 04:16:25;;;;;;;1.52;1.00;;;;;;;5.77;74.97;91681.72;2065115;69;20186;-76
2024/02/27 04:18:52;;;;;;;2.00;1.00;;;;;;;5.67;75.49;91683.13;2065084;69;20149;-76
2024/02/27 04:21:18;;;;;;;1.30;0.90;;;;;;;5.68;75.09;91676.22;2065099;69;20805;-76
2024/02/27 04:23:44;;;;;;;1.65;0.90;;;;;;;5.59;74.90;91686.19;2065059;69;20177;-76
2024/02/27 04:26:09;;;;;;;1.02;1.00;;;;;;;5.62;75.64;91682.16;2065068;69;20236;-75
2024/02/27 04:28:35;;;;;;;1.27;1.00;;;;;;;5.79;75.56;91681.09;2065277;69;20226;-75
2024/02/27 04:31:01;;;;;;;1.63;1.00;;;;;;;5.51;76.21;91683.59;2064907;69;20227;-75
2024/02/27 04:33:27;;;;;;;2.75;1.05;;;;;;;5.68;75.85;91687.38;2064682;69;20596;-75
2024/02/27 04:35:53;;;;;;;1.05;0.95;;;;;;;5.69;75.44;91678.41;2065542;69;20148;-75
2024/02/27 04:38:20;;;;;;;3.78;2.38;;;;;;;5.79;75.14;91684.63;2065604;69;20553;-75
2024/02/27 04:40:49;;;;;;;2.55;1.27;;;;;;;5.90;74.06;91697.13;2065170;69;20152;-76
2024/02/27 04:43:15;;;;;;;1.40;1.00;;;;;;;5.67;75.61;91691.50;2065278;69;20528;-75
2024/02/27 04:45:41;;;;;;;1.10;0.90;;;;;;;5.83;74.22;91693.25;2065061;69;20616;-76
2024/02/27 04:48:07;;;;;;;1.98;0.90;;;;;;;5.86;74.25;91699.69;2064543;69;20137;-75
2024/02/27 04:50:33;;;;;;;1.30;1.00;;;;;;;5.81;75.46;91704.28;2065099;69;20153;-76
2024/02/27 04:53:00;;;;;;;1.98;1.63;;;;;;;5.51;76.34;91696.84;2064782;69;20580;-76
2024/02/27 04:55:27;;;;;;;2.45;0.90;;;;;;;5.68;74.78;91701.34;2065001;69;20129;-75
2024/02/27 04:57:54;;;;;;;1.88;1.10;;;;;;;5.66;75.45;91696.38;2065081;69;20151;-75
2024/02/27 05:00:20;;;;;;;1.27;1.00;;;;;;;5.78;75.31;91705.50;2064473;69;20179;-76
2024/02/27 05:02:46;;;;;;;2.33;0.80;;;;;;;5.81;74.49;91690.31;2065092;69;20520;-76
2024/02/27 05:05:12;;;;;;;1.38;1.10;;;;;;;5.71;75.62;91686.91;2064408;69;20153;-75
2024/02/27 05:07:38;;;;;;;1.30;1.00;;;;;;;5.81;75.94;91709.88;2064521;69;20226;-75
2024/02/27 05:10:07;;;;;;;2.08;1.23;;;;;;;5.76;75.65;91710.97;2064853;69;20228;-76
2024/02/27 05:12:33;;;;;;;1.70;1.20;;;;;;;5.83;75.14;91704.44;2064470;69;20532;-76
2024/02/27 05:14:58;;;;;;;1.67;1.23;;;;;;;5.83;74.80;91717.66;2064747;69;20195;-75
2024/02/27 05:17:24;;;;;;;2.15;1.17;;;;;;;5.79;75.83;91717.41;2064334;69;20141;-76
2024/02/27 05:23:37;;;;;;;2.45;1.73;;;;;;;5.87;74.31;91723.50;2064925;69;20599;-75
2024/02/27 05:26:03;;;;;;;3.33;1.95;;;;;;;5.84;75.64;91725.44;2064997;69;20153;-75
2024/02/27 05:28:29;;;;;;;3.33;2.35;;;;;;;5.83;75.44;91732.34;2064744;69;20153;-76
2024/02/27 05:30:56;;;;;;;3.53;1.80;;;;;;;5.80;76.49;91730.75;2064720;69;20748;-76
2024/02/27 05:33:21;;;;;;;2.67;1.75;;;;;;;5.81;76.00;91737.06;2065085;69;20746;-77
2024/02/27 05:35:47;;;;;;;1.65;1.15;;;;;;;5.82;76.08;91739.28;2065019;69;20778;-77
2024/02/27 05:38:16;;;;;;;1.83;1.50;;;;;;;5.77;76.86;91734.03;2065553;69;20532;-77
2024/02/27 05:40:42;;;;;;;1.80;1.10;;;;;;;5.86;76.05;91738.78;2065343;69;20137;-77
2024/02/27 05:43:08;;;;;;;1.85;1.38;;;;;;;5.85;76.36;91742.91;2065308;69;20168;-77
2024/02/27 05:45:35;;;;;;;3.53;2.20;;;;;;;5.65;76.54;91736.81;2066337;69;20145;-77
2024/02/27 05:48:02;;;;;;;3.58;2.35;;;;;;;5.65;76.49;91742.38;2065977;69;20153;-77
2024/02/27 05:50:27;;;;;;;2.92;2.35;;;;;;;5.57;76.66;91758.63;2065400;69;20137;-76
2024/02/27 05:52:53;;;;;;;5.63;2.20;;;;;;;5.14;78.91;91752.38;2065378;69;20392;-76
2024/02/27 05:55:18;;;;;;;4.18;2.40;;;;;;;5.54;77.51;91754.97;2065546;69;20152;-76
2024/02/27 05:57:44;;;;;;;3.05;2.25;;;;;;;5.63;77.34;91755.47;2065544;69;20539;-77
2024/02/27 06:00:18;;;;;;;3.35;1.90;;;;;;;5.69;77.12;91770.56;2065461;69;20275;-77
2024/02/27 06:02:43;;;;;;;1.90;1.65;;;;;;;5.64;77.83;91762.53;2064952;69;20624;-76
2024/02/27 06:05:09;;;;;;;3.05;1.70;;;;;;;5.69;78.19;91767.06;2064998;69;20133;-75
2024/02/27 06:07:36;;;;;;;1.90;1.35;;;;;;;5.70;78.31;91774.09;2065553;69;20141;-77
2024/02/27 06:10:02;;;;;;;1.83;1.25;;;;;;;5.72;77.20;91763.75;2065300;69;20173;-76
2024/02/27 06:12:31;;;;;;;1.23;1.13;;;;;;;5.74;77.75;91769.50;2065319;69;20229;-76
2024/02/27 06:14:57;;;;;;;5.25;3.20;;;;;;;5.71;76.94;91770.69;2064919;69;20133;-76
2024/02/27 06:17:22;;;;;;;7.32;3.67;;;;;;;5.56;77.42;91762.75;2064582;69;20159;-77
2024/02/27 06:19:55;;;;;;;12.45;5.90;;;;;;;5.56;77.04;91766.28;2065107;69;20153;-75
2024/02/27 06:22:22;;;;;;;12.35;5.78;;;;;;;5.21;79.83;91766.09;2065279;69;20139;-76
2024/02/27 06:24:49;;;;;;;8.13;4.40;;;;;;;5.53;78.86;91763.94;2065625;69;20153;-76
2024/02/27 06:27:15;;;;;;;7.38;4.53;;;;;;;5.71;77.48;91767.91;2065555;69;20151;-77
2024/02/27 06:29:40;;;;;;;6.28;3.65;;;;;;;5.79;77.48;91760.03;2065445;69;20169;-77
2024/02/27 06:35:53;;;;;;;6.40;3.85;;;;;;;5.95;76.78;91763.13;2065628;69;20194;-77
2024/02/27 06:42:08;;;;;;;9.00;4.60;;;;;;;5.75;77.92;91773.75;2065311;69;20131;-75
2024/02/27 06:44:34;;;;;;;9.55;5.90;;;;;;;5.83;77.57;91771.47;2065082;69;20164;-75
2024/02/27 06:46:59;;;;;;;10.15;5.28;;;;;;;5.92;77.48;91774.78;2065500;69;20195;-75
2024/02/27 06:49:25;;;;;;;12.98;5.50;;;;;;;6.01;77.00;91780.28;2064674;69;20156;-75
2024/02/27 06:55:45;;;;;;;6.70;3.92;;;;;;;6.21;75.70;91780.06;2065272;69;20136;-75
2024/02/27 06:58:11;;;;;;;8.05;4.25;;;;;;;6.24;76.20;91779.59;2065618;69;20206;-75
2024/02/27 07:00:36;;;;;;;8.15;4.25;;;;;;;6.13;76.39;91791.47;2065389;69;20141;-75
2024/02/27 07:03:03;;;;;;;12.55;5.47;;;;;;;5.95;77.84;91796.66;2064978;69;20163;-74
2024/02/27 07:05:29;;;;;;;9.05;5.68;;;;;;;6.17;77.21;91796.59;2065345;69;20160;-73
2024/02/27 07:07:55;;;;;;;7.65;5.00;;;;;;;6.39;76.39;91797.25;2065399;69;20160;-75
2024/02/27 07:10:20;;;;;;;8.88;5.03;;;;;;;6.59;74.80;91799.19;2064891;69;20209;-74
2024/02/27 07:12:46;;;;;;;9.77;5.20;;;;;;;6.80;75.52;91808.81;2065310;69;20503;-74
2024/02/27 07:15:12;;;;;;;10.27;5.28;;;;;;;6.87;75.65;91808.56;2064725;69;20164;-74
2024/02/27 07:17:37;;;;;;;11.05;5.82;;;;;;;6.93;74.24;91801.88;2065309;69;20557;-75
2024/02/27 07:20:03;;;;;;;14.43;7.35;;;;;;;6.64;75.63;91808.56;2064577;69;20160;-75
2024/02/27 07:22:32;;;;;;;10.07;5.15;;;;;;;6.20;78.27;91809.34;2065165;69;20156;-74
2024/02/27 07:24:58;;;;;;;7.30;4.28;;;;;;;6.33;78.29;91809.50;2065272;69;20141;-73
2024/02/27 07:27:23;;;;;;;7.15;4.15;;;;;;;6.78;76.72;91820.63;2065229;69;20206;-77
2024/02/27 07:29:49;;;;;;;10.05;5.43;;;;;;;7.03;75.70;91822.06;2065271;69;20132;-76
2024/02/27 07:32:14;;;;;;;12.38;6.47;;;;;;;6.77;75.77;91807.22;2064405;69;20263;-74
2024/02/27 07:34:42;;;;;;;8.55;5.80;;;;;;;7.06;75.40;91818.06;2064444;69;20145;-74
2024/02/27 07:37:12;;;;;;;10.82;5.80;;;;;;;7.25;74.60;91828.25;2065204;69;20153;-74
2024/02/27 07:39:37;;;;;;;10.32;5.15;;;;;;;7.20;74.07;91829.34;2065400;69;20145;-75
2024/02/27 07:42:03;;;;;;;10.52;5.25;;;;;;;7.19;73.96;91825.81;2064819;69;20145;-75
2024/02/27 07:44:29;;;;;;;5.88;4.00;;;;;;;7.29;73.25;91829.22;2065114;69;20568;-76
2024/02/27 07:46:54;;;;;;;5.57;3.75;;;;;;;7.45;72.57;91826.63;2065154;69;20156;-77
2024/02/27 07:49:20;;;;;;;8.98;5.00;;;;;;;7.26;72.90;91835.31;2064943;69;20188;-75
2024/02/27 07:51:46;;;;;;;5.82;4.28;;;;;;;7.26;73.40;91822.03;2065157;69;20161;-77
2024/02/27 07:54:15;;;;;;;7.90;5.00;;;;;;;7.37;72.64;91828.94;2064770;69;20145;-77
2024/02/27 07:56:41;;;;;;;8.88;4.40;;;;;;;7.42;72.65;91825.03;2064994;69;20196;-76
2024/02/27 07:59:07;;;;;;;9.52;5.20;;;;;;;7.62;71.84;91831.81;2065375;69;20152;-77
2024/02/27 08:01:33;;;;;;;6.57;4.28;;;;;;;7.76;71.82;91820.69;2065375;69;20152;-77
2024/02/27 08:03:58;;;;;;;5.55;3.97;;;;;;;7.76;72.07;91819.97;2065011;69;20243;-78
2024/02/27 08:06:27;;;;;;;7.88;4.65;;;;;;;7.73;71.78;91826.78;2064875;69;20576;-78
2024/02/27 08:08:54;;;;;;;4.60;3.45;;;;;;;7.77;71.04;91833.34;2065081;69;20529;-78
2024/02/27 08:11:21;;;;;;;10.88;4.25;;;;;;;7.50;72.48;91830.38;2064938;69;20149;-78
2024/02/27 08:13:47;;;;;;;9.27;5.40;;;;;;;7.67;73.24;91837.66;2065120;69;20161;-77
2024/02/27 08:16:13;;;;;;;10.25;4.85;;;;;;;7.50;73.38;91828.31;2065059;69;20222;-76
2024/02/27 08:18:38;;;;;;;9.70;5.93;;;;;;;7.72;72.10;91830.94;2064433;69;20145;-75
2024/02/27 08:21:04;;;;;;;9.65;6.05;;;;;;;8.07;71.61;91839.22;2065063;69;20160;-76
2024/02/27 08:23:30;;;;;;;6.57;4.20;;;;;;;8.19;70.79;91827.94;2065077;69;20305;-75
2024/02/27 08:25:56;;;;;;;8.68;4.15;;;;;;;7.83;70.52;91832.97;2065154;69;20174;-76
2024/02/27 08:28:22;;;;;;;7.70;4.85;;;;;;;7.45;72.25;91834.28;2065128;69;20164;-75
2024/02/27 08:30:48;;;;;;;10.57;6.28;;;;;;;7.57;72.68;91843.41;2065323;69;20618;-76
2024/02/27 08:33:14;;;;;;;14.02;8.90;;;;;;;7.50;73.12;91845.13;2064479;69;20141;-75
2024/02/27 08:35:40;;;;;;;12.23;7.30;;;;;;;8.03;72.63;91855.81;2064975;69;20166;-76
2024/02/27 08:38:05;;;;;;;10.32;6.60;;;;;;;7.90;72.07;91862.81;2065298;69;20177;-75
2024/02/27 08:40:32;;;;;;;10.10;6.30;;;;;;;8.14;70.61;91864.16;2065342;69;20645;-75
2024/02/27 08:42:58;;;;;;;9.00;5.65;;;;;;;8.24;70.46;91864.00;2065102;69;20220;-75
2024/02/27 08:45:24;;;;;;;6.75;3.95;;;;;;;8.13;69.83;91862.72;2065210;69;20239;-78
2024/02/27 08:47:50;;;;;;;6.55;3.97;;;;;;;8.29;69.88;91878.97;2065227;69;20227;-78
2024/02/27 08:50:16;;;;;;;6.78;4.00;;;;;;;8.25;70.06;91864.75;2065067;69;20157;-77
2024/02/27 08:52:42;;;;;;;8.32;3.22;;;;;;;8.45;68.82;91882.72;2064554;69;20148;-79
2024/02/27 08:55:08;;;;;;;4.88;3.30;;;;;;;8.65;68.30;91881.00;2065226;69;20149;-76
2024/02/27 08:57:34;;;;;;;4.57;2.83;;;;;;;8.95;67.88;91877.69;2065073;69;20201;-77
2024/02/27 09:00:00;;;;;;;6.25;4.10;;;;;;;8.58;68.59;91882.03;2064552;69;20232;-77
2024/02/27 09:02:26;;;;;;;6.43;3.70;;;;;;;8.62;68.77;91878.72;2064478;69;20236;-75
2024/02/27 09:04:52;;;;;;;3.53;2.72;;;;;;;8.70;67.75;91876.34;2065041;69;20164;-76
2024/02/27 09:07:18;;;;;;;4.20;3.50;;;;;;;9.04;66.71;91874.66;2065001;69;20157;-75
2024/02/27 09:09:44;;;;;;;3.95;3.13;;;;;;;8.95;65.69;91872.78;2065060;69;20149;-73
2024/02/27 09:12:11;;;;;;;5.55;3.85;;;;;;;8.22;68.73;91875.09;2065631;69;20148;-75
2024/02/27 09:14:37;;;;;;;7.40;3.85;;;;;;;8.00;68.99;91880.19;2065667;69;20141;-74
2024/02/27 09:17:03;;;;;;;4.32;3.17;;;;;;;8.56;67.69;91881.19;2065866;69;20238;-74
2024/02/27 09:19:29;;;;;;;4.90;3.20;;;;;;;8.93;66.71;91880.34;2065645;69;20609;-78
2024/02/27 09:21:55;;;;;;;4.30;3.13;;;;;;;9.28;66.03;91886.44;2065719;69;20153;-74
2024/02/27 09:24:21;;;;;;;6.35;3.33;;;;;;;9.45;65.99;91890.13;2065669;69;20520;-76
2024/02/27 09:26:47;;;;;;;6.93;3.80;;;;;;;9.36;66.34;91878.44;2065651;69;20202;-74
2024/02/27 09:29:13;;;;;;;7.00;4.60;;;;;;;9.29;65.23;91882.28;2065748;69;20176;-76
2024/02/27 09:31:39;;;;;;;5.60;3.80;;;;;;;9.31;66.80;91885.22;2065295;69;20566;-77
2024/02/27 09:34:08;;;;;;;6.47;4.20;;;;;;;9.01;67.44;91889.94;2065476;69;20593;-74
2024/02/27 09:36:33;;;;;;;4.03;3.28;;;;;;;8.90;67.58;91888.69;2065209;69;20153;-75
2024/02/27 09:38:59;;;;;;;5.40;3.80;;;;;;;9.39;66.17;91890.50;2064964;69;20178;-74
2024/02/27 09:41:36;;;;;;;5.20;3.15;;;;;;;9.77;65.34;91888.97;2065618;69;20149;-77
2024/02/27 09:44:03;;;;;;;5.63;3.50;;;;;;;10.18;64.98;91888.16;2065622;69;20149;-74
2024/02/27 09:46:29;;;;;;;5.43;3.60;;;;;;;10.35;65.03;91889.69;2065696;69;20156;-73
2024/02/27 09:48:55;;;;;;;7.75;4.70;;;;;;;10.61;64.54;91887.44;2065552;69;20133;-73
2024/02/27 09:51:24;;;;;;;6.25;3.58;;;;;;;10.84;63.32;91892.75;2065827;69;20232;-73
2024/02/27 09:53:50;;;;;;;5.75;3.20;;;;;;;11.00;62.38;91897.69;2065359;69;20164;-74
2024/02/27 09:56:16;;;;;;;5.65;3.72;;;;;;;10.58;63.11;91889.44;2065310;69;20228;-73
2024/02/27 09:58:45;;;;;;;10.15;6.75;;;;;;;10.42;64.16;91875.31;2065598;69;20177;-74
2024/02/27 10:01:14;;;;;;;21.95;12.65;;;;;;;11.06;62.51;91876.16;2065686;69;20191;-75
2024/02/27 10:03:45;;;;;;;13.50;7.72;;;;;;;10.80;63.28;91892.56;2065571;69;20156;-74
2024/02/27 10:06:19;;;;;;;6.03;3.97;;;;;;;11.65;61.31;91892.16;2065654;69;20148;-74
2024/02/27 10:08:49;;;;;;;3.40;2.42;;;;;;;11.43;60.93;91898.25;2065565;69;20155;-74
2024/02/27 10:11:17;;;;;;;4.07;2.75;;;;;;;11.15;61.39;91894.16;2065484;69;20141;-74
2024/02/27 10:13:42;;;;;;;4.13;2.53;;;;;;;11.38;60.70;91888.16;2065699;69;20160;-73
2024/02/27 10:16:08;;;;;;;3.45;2.50;;;;;;;11.41;59.35;91892.53;2065511;69;20153;-73
2024/02/27 10:18:34;;;;;;;2.50;1.80;;;;;;;10.83;60.69;91896.22;2065041;69;20149;-73
2024/02/27 10:20:59;;;;;;;3.10;2.17;;;;;;;11.13;61.06;91899.69;2065329;69;20137;-74
2024/02/27 10:23:25;;;;;;;3.13;2.25;;;;;;;11.83;59.79;91897.91;2065441;69;20248;-74
2024/02/27 10:25:51;;;;;;;3.83;2.70;;;;;;;12.63;58.95;91907.56;2065291;69;20145;-73
2024/02/27 10:28:18;;;;;;;4.65;2.33;;;;;;;13.46;58.04;91902.34;2065424;69;20146;-73
2024/02/27 10:30:43;;;;;;;3.35;2.00;;;;;;;13.32;55.83;91901.81;2065294;69;20153;-74
2024/02/27 10:33:13;;;;;;;3.10;2.13;;;;;;;12.90;55.85;91909.34;2065213;69;20240;-74
2024/02/27 10:35:42;;;;;;;3.03;1.90;;;;;;;13.30;55.48;91912.31;2065312;69;20156;-73
2024/02/27 10:38:19;;;;;;;2.60;1.95;;;;;;;13.37;54.91;91914.00;2065263;69;20509;-74
2024/02/27 10:40:47;;;;;;;3.80;2.20;;;;;;;13.92;53.08;91905.41;2065308;69;20215;-74
2024/02/27 10:43:12;;;;;;;2.95;1.63;;;;;;;14.59;51.12;91918.38;2065253;69;20224;-74
2024/02/27 10:45:40;;;;;;;3.75;1.50;;;;;;;15.01;50.75;91915.47;2065242;69;20248;-74
2024/02/27 10:48:06;;;;;;;2.05;1.50;;;;;;;15.36;50.08;91913.72;2065030;69;20180;-74
2024/02/27 10:50:32;;;;;;;2.08;1.38;;;;;;;15.51;48.88;91924.13;2065235;69;20267;-74
2024/02/27 10:52:59;;;;;;;1.45;1.15;;;;;;;15.92;48.96;91922.50;2065247;69;20253;-74
2024/02/27 10:55:26;;;;;;;2.75;1.50;;;;;;;16.88;47.60;91913.72;2065432;69;20145;-74
2024/02/27 10:57:59;;;;;;;2.60;1.10;;;;;;;17.30;46.96;91925.41;2065257;69;20177;-74
2024/02/27 11:00:28;;;;;;;2.42;1.23;;;;;;;16.56;44.85;91920.00;2065216;69;20149;-75
2024/02/27 11:02:57;;;;;;;1.77;1.00;;;;;;;17.59;45.62;91918.22;2064687;69;20160;-74
2024/02/27 11:05:27;;;;;;;1.25;0.88;;;;;;;19.67;42.76;91918.59;2064722;69;20567;-75
2024/02/27 11:07:55;;;;;;;3.80;1.35;;;;;;;19.74;40.96;91917.25;2065229;69;20616;-75
2024/02/27 11:10:23;;;;;;;2.15;1.02;;;;;;;20.98;39.45;91915.22;2065210;69;20528;-76
2024/02/27 11:12:52;;;;;;;1.73;1.20;;;;;;;22.00;38.56;91913.91;2065164;69;20512;-76
2024/02/27 11:15:19;;;;;;;0.98;0.80;;;;;;;21.12;37.98;91914.63;2065222;69;20156;-76
2024/02/27 11:17:55;;;;;;;2.00;0.95;;;;;;;19.20;40.13;91906.44;2065183;69;20167;-77
2024/02/27 11:20:21;;;;;;;0.70;0.68;;;;;;;21.58;39.16;91914.34;2065375;69;20192;-77
2024/02/27 11:22:47;;;;;;;2.95;0.68;;;;;;;23.29;35.49;91917.28;2065432;69;20574;-77
2024/02/27 11:25:14;;;;;;;0.82;0.70;;;;;;;22.29;36.61;91914.06;2065366;69;20168;-76
2024/02/27 11:27:40;;;;;;;2.17;1.45;;;;;;;23.72;34.85;91925.94;2065222;69;20192;-80
2024/02/27 11:30:08;;;;;;;1.00;0.80;;;;;;;24.48;35.46;91921.50;2064799;69;20608;-76
2024/02/27 11:32:36;;;;;;;0.82;0.80;;;;;;;25.59;31.59;91925.25;2065170;69;20171;-77
2024/02/27 11:35:02;;;;;;;1.60;0.70;;;;;;;24.69;33.80;91912.78;2065151;69;20234;-76
2024/02/27 11:37:28;;;;;;;1.40;1.05;;;;;;;25.56;32.65;91928.88;2065187;69;20665;-76
2024/02/27 11:39:55;;;;;;;2.40;1.13;;;;;;;25.27;32.68;91913.97;2065121;69;20137;-76
2024/02/27 11:42:36;;;;;;;2.28;1.30;;;;;;;27.61;31.08;91920.16;2065174;69;20608;-75
2024/02/27 11:45:03;;;;;;;2.13;1.40;;;;;;;26.25;31.76;91913.91;2065178;69;20167;-75
2024/02/27 11:47:37;;;;;;;3.28;1.13;;;;;;;23.51;32.96;91905.81;2065199;69;20149;-75
2024/02/27 11:50:03;;;;;;;1.10;0.98;;;;;;;25.26;32.18;91924.75;2065046;69;20623;-76
2024/02/27 11:52:33;;;;;;;0.80;0.80;;;;;;;28.47;29.98;91918.09;2064977;69;20153;-76
2024/02/27 11:55:07;;;;;;;2.50;0.77;;;;;;;32.94;27.15;91921.47;2065267;69;20149;-76
2024/02/27 11:57:35;;;;;;;1.15;0.75;;;;;;;31.40;25.92;91922.06;2061914;69;20590;-76
2024/02/27 12:00:16;;;;;;;3.15;0.80;;;;;;;32.88;24.56;91930.41;2065124;69;20147;-79
2024/02/27 12:06:30;;;;;;;3.40;0.70;;;;;;;29.25;26.84;91914.38;2065202;69;20120;-78
2024/02/27 12:08:55;;;;;;;0.70;0.70;;;;;;;30.16;26.86;91914.50;2064601;69;20157;-77
2024/02/27 12:11:23;;;;;;;0.63;0.60;;;;;;;32.31;25.22;91915.59;2065086;69;20176;-75